createdAt,value
2023-03-05T00:00:05.520Z,99383.93
2023-03-05T00:00:36.824Z,99379.81
2023-03-05T00:01:09.642Z,99380.73
2023-03-05T00:01:36.034Z,99377.13
2023-03-05T00:01:59.166Z,99376.30
2023-03-05T00:02:22.182Z,99378.79
2023-03-05T00:02:45.311Z,99377.27
2023-03-05T00:03:08.511Z,99375.05
2023-03-05T00:03:33.990Z,99378.37
2023-03-05T00:03:57.265Z,99376.46
2023-03-05T00:04:21.630Z,99378.33
2023-03-05T00:04:44.724Z,99379.20
2023-03-05T00:05:08.457Z,99386.09
2023-03-05T00:05:32.490Z,99383.77
2023-03-05T00:05:58.566Z,99383.20
2023-03-05T00:06:22.001Z,99382.42
2023-03-05T00:06:45.109Z,99384.27
2023-03-05T00:07:09.850Z,99384.57
2023-03-05T00:07:32.865Z,99382.21
2023-03-05T00:08:00.167Z,99381.36
2023-03-05T00:08:23.897Z,99381.15
2023-03-05T00:08:47.538Z,99380.02
2023-03-05T00:09:10.840Z,99382.58
2023-03-05T00:09:38.765Z,99380.25
2023-03-05T00:10:03.030Z,99378.05
2023-03-05T00:10:27.430Z,99379.76
2023-03-05T00:10:57.924Z,99376.38
2023-03-05T00:11:21.962Z,99379.70
2023-03-05T00:11:45.072Z,99379.75
2023-03-05T00:12:08.594Z,99377.00
2023-03-05T00:12:31.718Z,99379.97
2023-03-05T00:12:54.707Z,99378.30
2023-03-05T00:13:18.041Z,99380.98
2023-03-05T00:13:41.269Z,99378.45
2023-03-05T00:14:06.409Z,99378.88
2023-03-05T00:14:29.526Z,99375.14
2023-03-05T00:14:52.773Z,99376.02
2023-03-05T00:15:18.624Z,99373.48
2023-03-05T00:15:43.445Z,99375.59
2023-03-05T00:16:11.114Z,99378.05
2023-03-05T00:16:39.107Z,99374.85
2023-03-05T00:17:02.328Z,99373.59
2023-03-05T00:17:25.440Z,99376.68
2023-03-05T00:17:48.560Z,99378.74
2023-03-05T00:18:11.767Z,99381.48
2023-03-05T00:18:35.698Z,99381.42
2023-03-05T00:18:58.917Z,99381.67
2023-03-05T00:19:22.032Z,99380.82
2023-03-05T00:19:45.247Z,99380.43
2023-03-05T00:20:08.872Z,99377.45
2023-03-05T00:20:32.094Z,99378.66
2023-03-05T00:20:55.309Z,99378.98
2023-03-05T00:21:24.684Z,99378.21
2023-03-05T00:21:47.878Z,99377.86
2023-03-05T00:22:14.088Z,99373.31
2023-03-05T00:22:37.479Z,99371.81
2023-03-05T00:23:02.837Z,99368.00
2023-03-05T00:23:26.266Z,99369.27
2023-03-05T00:23:50.930Z,99371.35
2023-03-05T00:24:15.249Z,99372.16
2023-03-05T00:24:39.293Z,99375.08
2023-03-05T00:25:03.217Z,99375.35
2023-03-05T00:25:26.450Z,99375.09
2023-03-05T00:25:49.956Z,99369.31
2023-03-05T00:26:13.071Z,99371.75
2023-03-05T00:26:37.309Z,99375.49
2023-03-05T00:27:00.629Z,99374.42
2023-03-05T00:27:23.945Z,99371.77
2023-03-05T00:27:48.184Z,99367.88
2023-03-05T00:28:11.301Z,99367.65
2023-03-05T00:28:34.517Z,99370.02
2023-03-05T00:28:57.571Z,99372.00
2023-03-05T00:29:22.079Z,99369.86
2023-03-05T00:29:46.422Z,99369.86
2023-03-05T00:30:10.041Z,99369.39
2023-03-05T00:30:34.999Z,99370.65
2023-03-05T00:31:02.379Z,99374.17
2023-03-05T00:31:26.787Z,99375.91
2023-03-05T00:31:49.902Z,99376.30
2023-03-05T00:32:13.106Z,99374.63
2023-03-05T00:32:36.564Z,99375.34
2023-03-05T00:32:59.721Z,99377.46
2023-03-05T00:33:22.931Z,99376.21
2023-03-05T00:33:46.260Z,99375.20
2023-03-05T00:34:09.672Z,99375.98
2023-03-05T00:34:32.897Z,99378.58
2023-03-05T00:34:56.016Z,99375.48
2023-03-05T00:35:21.938Z,99372.90
2023-03-05T00:35:51.243Z,99380.42
2023-03-05T00:36:15.479Z,99381.22
2023-03-05T00:36:56.637Z,99388.41
2023-03-05T00:37:20.853Z,99386.48
2023-03-05T00:37:43.937Z,99385.54
2023-03-05T00:38:07.255Z,99383.55
2023-03-05T00:38:30.473Z,99384.59
2023-03-05T00:38:53.487Z,99387.67
2023-03-05T00:39:17.940Z,99387.27
2023-03-05T00:39:41.049Z,99388.94
2023-03-05T00:40:04.717Z,99389.40
2023-03-05T00:40:27.925Z,99392.67
2023-03-05T00:40:51.009Z,99391.59
2023-03-05T00:41:14.769Z,99390.66
2023-03-05T00:41:38.275Z,99390.89
2023-03-05T00:42:02.691Z,99393.52
2023-03-05T00:42:25.911Z,99394.06
2023-03-05T00:42:48.960Z,99392.16
2023-03-05T00:43:12.034Z,99396.52
2023-03-05T00:43:35.251Z,99393.73
2023-03-05T00:43:58.671Z,99394.09
2023-03-05T00:44:21.859Z,99392.66
2023-03-05T00:44:46.288Z,99387.09
2023-03-05T00:45:09.855Z,99387.23
2023-03-05T00:45:33.187Z,99390.76
2023-03-05T00:45:56.288Z,99391.45
2023-03-05T00:46:19.409Z,99393.59
2023-03-05T00:46:42.770Z,99394.45
2023-03-05T00:47:08.815Z,99396.61
2023-03-05T00:47:35.595Z,99397.40
2023-03-05T00:48:00.345Z,99400.34
2023-03-05T00:48:23.261Z,99397.68
2023-03-05T00:48:46.484Z,99395.61
2023-03-05T00:49:09.791Z,99392.74
2023-03-05T00:49:33.118Z,99390.45
2023-03-05T00:49:56.547Z,99392.43
2023-03-05T00:50:20.053Z,99394.30
2023-03-05T00:50:43.371Z,99394.19
2023-03-05T00:51:07.015Z,99394.81
2023-03-05T00:51:30.099Z,99389.14
2023-03-05T00:51:53.341Z,99394.59
2023-03-05T00:52:16.344Z,99389.27
2023-03-05T00:52:39.659Z,99393.83
2023-03-05T00:53:03.183Z,99393.86
2023-03-05T00:53:26.519Z,99389.95
2023-03-05T00:53:49.493Z,99387.59
2023-03-05T00:54:12.529Z,99390.33
2023-03-05T00:54:38.212Z,99392.98
2023-03-05T00:55:01.316Z,99390.14
2023-03-05T00:55:26.068Z,99389.92
2023-03-05T00:55:49.073Z,99394.09
2023-03-05T00:56:12.081Z,99393.71
2023-03-05T00:56:35.210Z,99394.34
2023-03-05T00:56:58.223Z,99394.82
2023-03-05T00:57:21.226Z,99401.73
2023-03-05T00:57:44.334Z,99396.04
2023-03-05T00:58:07.548Z,99397.33
2023-03-05T00:58:30.663Z,99399.71
2023-03-05T00:58:54.091Z,99396.98
2023-03-05T00:59:17.104Z,99398.77
2023-03-05T00:59:41.600Z,99396.46
2023-03-05T01:00:06.294Z,99394.49
2023-03-05T01:00:30.328Z,99394.21
2023-03-05T01:00:57.329Z,99398.17
2023-03-05T01:01:21.277Z,99402.47
2023-03-05T01:01:44.399Z,99401.42
2023-03-05T01:02:08.331Z,99399.68
2023-03-05T01:02:34.479Z,99401.77
2023-03-05T01:02:58.016Z,99402.00
2023-03-05T01:03:23.679Z,99402.91
2023-03-05T01:03:48.631Z,99401.74
2023-03-05T01:04:14.093Z,99403.92
2023-03-05T01:04:38.961Z,99401.35
2023-03-05T01:05:03.712Z,99403.31
2023-03-05T01:05:28.818Z,99401.42
2023-03-05T01:05:52.995Z,99402.86
2023-03-05T01:06:17.436Z,99401.51
2023-03-05T01:06:44.956Z,99399.46
2023-03-05T01:07:10.823Z,99406.41
2023-03-05T01:07:35.902Z,99407.43
2023-03-05T01:07:59.402Z,99407.45
2023-03-05T01:08:22.492Z,99407.19
2023-03-05T01:08:46.038Z,99407.27
2023-03-05T01:09:10.608Z,99409.16
2023-03-05T01:09:34.061Z,99406.94
2023-03-05T01:10:03.051Z,99409.19
2023-03-05T01:10:29.259Z,99405.23
2023-03-05T01:10:56.414Z,99407.88
2023-03-05T01:11:21.800Z,99403.83
2023-03-05T01:11:45.119Z,99404.29
2023-03-05T01:12:10.289Z,99407.36
2023-03-05T01:12:33.695Z,99407.02
2023-03-05T01:12:57.424Z,99408.81
2023-03-05T01:13:20.638Z,99407.92
2023-03-05T01:13:43.653Z,99407.77
2023-03-05T01:14:06.902Z,99404.00
2023-03-05T01:14:30.389Z,99404.71
2023-03-05T01:14:53.776Z,99407.36
2023-03-05T01:15:17.642Z,99409.66
2023-03-05T01:15:41.164Z,99399.96
2023-03-05T01:16:04.622Z,99404.67
2023-03-05T01:16:27.799Z,99403.44
2023-03-05T01:16:50.911Z,99403.60
2023-03-05T01:17:16.381Z,99401.31
2023-03-05T01:17:39.695Z,99402.32
2023-03-05T01:18:02.911Z,99401.90
2023-03-05T01:18:27.050Z,99401.44
2023-03-05T01:18:50.267Z,99396.80
2023-03-05T01:19:13.793Z,99393.59
2023-03-05T01:19:36.901Z,99393.31
2023-03-05T01:20:00.425Z,99394.42
2023-03-05T01:20:25.007Z,99396.60
2023-03-05T01:20:49.737Z,99397.63
2023-03-05T01:21:18.868Z,99400.08
2023-03-05T01:21:42.295Z,99399.85
2023-03-05T01:22:09.596Z,99397.84
2023-03-05T01:22:33.536Z,99396.19
2023-03-05T01:22:59.107Z,99399.63
2023-03-05T01:23:23.643Z,99406.39
2023-03-05T01:23:46.964Z,99404.92
2023-03-05T01:24:09.987Z,99406.83
2023-03-05T01:24:33.608Z,99406.55
2023-03-05T01:24:56.816Z,99410.07
2023-03-05T01:25:20.643Z,99408.92
2023-03-05T01:25:43.795Z,99412.77
2023-03-05T01:26:08.788Z,99412.72
2023-03-05T01:26:32.239Z,99412.02
2023-03-05T01:26:55.349Z,99414.55
2023-03-05T01:27:18.463Z,99414.48
2023-03-05T01:27:41.696Z,99415.23
2023-03-05T01:28:06.941Z,99410.55
2023-03-05T01:28:35.270Z,99410.23
2023-03-05T01:28:59.817Z,99406.74
2023-03-05T01:29:23.141Z,99404.05
2023-03-05T01:29:46.262Z,99407.32
2023-03-05T01:30:10.186Z,99408.84
2023-03-05T01:30:34.729Z,99409.20
2023-03-05T01:30:58.144Z,99411.27
2023-03-05T01:31:21.406Z,99410.91
2023-03-05T01:31:45.045Z,99408.66
2023-03-05T01:32:08.936Z,99406.28
2023-03-05T01:32:33.627Z,99408.45
2023-03-05T01:32:57.909Z,99408.55
2023-03-05T01:33:20.936Z,99411.81
2023-03-05T01:33:43.930Z,99412.61
2023-03-05T01:34:07.967Z,99411.02
2023-03-05T01:34:37.319Z,99408.23
2023-03-05T01:35:05.954Z,99407.21
2023-03-05T01:35:30.070Z,99413.11
2023-03-05T01:35:53.527Z,99412.39
2023-03-05T01:36:17.241Z,99416.67
2023-03-05T01:36:41.595Z,99412.26
2023-03-05T01:37:04.696Z,99412.45
2023-03-05T01:37:28.532Z,99415.14
2023-03-05T01:37:51.744Z,99415.48
2023-03-05T01:38:15.163Z,99416.14
2023-03-05T01:38:38.386Z,99415.42
2023-03-05T01:39:01.700Z,99415.45
2023-03-05T01:39:24.836Z,99417.30
2023-03-05T01:39:48.193Z,99410.67
2023-03-05T01:40:11.862Z,99418.33
2023-03-05T01:40:36.713Z,99416.45
2023-03-05T01:40:59.637Z,99412.45
2023-03-05T01:41:23.021Z,99416.99
2023-03-05T01:41:47.795Z,99417.05
2023-03-05T01:42:10.811Z,99416.52
2023-03-05T01:42:34.965Z,99414.51
2023-03-05T01:43:01.801Z,99412.73
2023-03-05T01:43:29.152Z,99416.69
2023-03-05T01:43:53.180Z,99418.42
2023-03-05T01:44:27.248Z,99417.89
2023-03-05T01:45:20.031Z,99419.29
2023-03-05T01:46:01.831Z,99417.88
2023-03-05T01:46:27.666Z,99417.06
2023-03-05T01:46:50.697Z,99415.09
2023-03-05T01:47:14.768Z,99416.65
2023-03-05T01:47:39.013Z,99414.89
2023-03-05T01:48:02.117Z,99418.65
2023-03-05T01:48:25.437Z,99419.27
2023-03-05T01:48:52.975Z,99421.58
2023-03-05T01:49:29.775Z,99417.27
2023-03-05T01:49:54.419Z,99417.98
2023-03-05T01:50:17.838Z,99420.70
2023-03-05T01:50:40.731Z,99418.04
2023-03-05T01:51:04.277Z,99418.70
2023-03-05T01:51:27.796Z,99420.21
2023-03-05T01:51:56.745Z,99420.86
2023-03-05T01:52:20.163Z,99423.61
2023-03-05T01:52:45.722Z,99422.73
2023-03-05T01:53:08.741Z,99419.92
2023-03-05T01:53:33.079Z,99423.04
2023-03-05T01:53:58.236Z,99425.34
2023-03-05T01:54:21.563Z,99424.15
2023-03-05T01:54:47.637Z,99428.64
2023-03-05T01:55:17.908Z,99427.15
2023-03-05T01:55:41.640Z,99424.69
2023-03-05T01:56:04.786Z,99425.20
2023-03-05T01:56:29.036Z,99431.63
2023-03-05T01:56:52.140Z,99428.44
2023-03-05T01:57:36.798Z,99428.23
2023-03-05T01:58:10.351Z,99430.23
2023-03-05T01:58:33.550Z,99431.48
2023-03-05T01:59:03.510Z,99427.69
2023-03-05T01:59:27.681Z,99425.60
2023-03-05T01:59:52.521Z,99422.98
2023-03-05T02:00:16.872Z,99424.63
2023-03-05T02:00:44.316Z,99425.27
2023-03-05T02:01:08.115Z,99426.99
2023-03-05T02:01:32.529Z,99427.56
2023-03-05T02:01:56.167Z,99428.23
2023-03-05T02:02:19.791Z,99430.91
2023-03-05T02:02:43.722Z,99427.73
2023-03-05T02:03:10.025Z,99433.63
2023-03-05T02:03:33.542Z,99435.86
2023-03-05T02:03:56.960Z,99438.75
2023-03-05T02:04:20.373Z,99438.05
2023-03-05T02:04:46.074Z,99439.40
2023-03-05T02:05:17.240Z,99442.33
2023-03-05T02:05:43.338Z,99442.73
2023-03-05T02:06:06.390Z,99444.31
2023-03-05T02:06:29.565Z,99443.52
2023-03-05T02:06:52.981Z,99446.73
2023-03-05T02:07:16.283Z,99444.38
2023-03-05T02:07:40.236Z,99444.13
2023-03-05T02:08:05.016Z,99445.96
2023-03-05T02:08:27.994Z,99444.82
2023-03-05T02:08:51.297Z,99444.58
2023-03-05T02:09:14.722Z,99444.64
2023-03-05T02:09:41.001Z,99443.84
2023-03-05T02:10:24.672Z,99444.04
2023-03-05T02:10:51.480Z,99444.52
2023-03-05T02:11:17.243Z,99442.15
2023-03-05T02:11:40.672Z,99440.71
2023-03-05T02:12:04.391Z,99442.20
2023-03-05T02:12:27.645Z,99443.39
2023-03-05T02:12:51.086Z,99444.50
2023-03-05T02:13:16.292Z,99443.75
2023-03-05T02:13:40.851Z,99445.27
2023-03-05T02:14:04.060Z,99440.70
2023-03-05T02:14:27.208Z,99444.69
2023-03-05T02:14:58.599Z,99447.41
2023-03-05T02:15:21.734Z,99444.69
2023-03-05T02:15:44.898Z,99446.48
2023-03-05T02:16:08.085Z,99447.42
2023-03-05T02:16:36.950Z,99448.38
2023-03-05T02:17:03.648Z,99447.77
2023-03-05T02:17:27.480Z,99451.00
2023-03-05T02:17:52.141Z,99448.83
2023-03-05T02:18:16.061Z,99451.88
2023-03-05T02:18:40.298Z,99457.29
2023-03-05T02:19:05.056Z,99456.98
2023-03-05T02:19:28.384Z,99459.43
2023-03-05T02:19:55.886Z,99462.16
2023-03-05T02:20:20.222Z,99460.88
2023-03-05T02:20:51.108Z,99459.59
2023-03-05T02:21:14.120Z,99464.51
2023-03-05T02:21:46.850Z,99463.08
2023-03-05T02:22:14.379Z,99463.09
2023-03-05T02:22:39.621Z,99465.10
2023-03-05T02:23:02.639Z,99467.89
2023-03-05T02:23:27.396Z,99467.75
2023-03-05T02:23:50.692Z,99467.28
2023-03-05T02:24:15.253Z,99468.11
2023-03-05T02:24:39.795Z,99462.63
2023-03-05T02:25:12.110Z,99468.14
2023-03-05T02:25:35.435Z,99466.52
2023-03-05T02:25:58.852Z,99470.83
2023-03-05T02:26:22.070Z,99472.69
2023-03-05T02:26:45.266Z,99471.23
2023-03-05T02:27:08.333Z,99474.86
2023-03-05T02:27:35.145Z,99472.58
2023-03-05T02:28:06.799Z,99473.23
2023-03-05T02:28:35.234Z,99473.55
2023-03-05T02:28:58.954Z,99474.73
2023-03-05T02:29:21.972Z,99476.89
2023-03-05T02:29:45.541Z,99477.39
2023-03-05T02:30:09.237Z,99476.87
2023-03-05T02:30:33.152Z,99477.54
2023-03-05T02:30:56.283Z,99477.38
2023-03-05T02:31:20.158Z,99475.73
2023-03-05T02:31:43.748Z,99476.52
2023-03-05T02:32:07.012Z,99473.85
2023-03-05T02:32:30.287Z,99475.52
2023-03-05T02:32:53.698Z,99475.52
2023-03-05T02:33:17.409Z,99478.29
2023-03-05T02:33:40.359Z,99477.09
2023-03-05T02:34:03.936Z,99477.64
2023-03-05T02:34:27.674Z,99479.77
2023-03-05T02:34:53.747Z,99478.97
2023-03-05T02:35:16.932Z,99480.42
2023-03-05T02:35:40.337Z,99480.32
2023-03-05T02:36:04.014Z,99477.41
2023-03-05T02:36:29.171Z,99478.38
2023-03-05T02:36:52.394Z,99480.76
2023-03-05T02:37:15.809Z,99482.73
2023-03-05T02:37:39.035Z,99479.56
2023-03-05T02:38:02.447Z,99479.44
2023-03-05T02:38:25.580Z,99476.88
2023-03-05T02:38:48.988Z,99478.27
2023-03-05T02:39:12.400Z,99474.98
2023-03-05T02:39:35.620Z,99473.05
2023-03-05T02:40:02.216Z,99476.06
2023-03-05T02:40:25.832Z,99477.02
2023-03-05T02:40:49.099Z,99478.00
2023-03-05T02:41:12.265Z,99475.31
2023-03-05T02:41:36.521Z,99479.70
2023-03-05T02:42:00.198Z,99477.35
2023-03-05T02:42:33.679Z,99477.95
2023-03-05T02:42:57.304Z,99475.80
2023-03-05T02:43:20.824Z,99476.90
2023-03-05T02:43:45.063Z,99477.80
2023-03-05T02:44:08.693Z,99481.30
2023-03-05T02:44:32.110Z,99476.48
2023-03-05T02:44:58.089Z,99477.37
2023-03-05T02:45:21.635Z,99475.98
2023-03-05T02:45:46.597Z,99476.20
2023-03-05T02:46:10.120Z,99475.91
2023-03-05T02:46:33.720Z,99477.36
2023-03-05T02:46:56.850Z,99477.45
2023-03-05T02:47:20.649Z,99481.69
2023-03-05T02:47:43.698Z,99480.23
2023-03-05T02:48:06.991Z,99479.56
2023-03-05T02:48:31.129Z,99480.09
2023-03-05T02:48:54.342Z,99478.16
2023-03-05T02:49:17.762Z,99479.54
2023-03-05T02:49:41.287Z,99479.08
2023-03-05T02:50:05.267Z,99477.42
2023-03-05T02:50:28.336Z,99479.02
2023-03-05T02:50:52.678Z,99479.16
2023-03-05T02:51:15.897Z,99480.26
2023-03-05T02:51:41.664Z,99480.34
2023-03-05T02:52:05.698Z,99483.01
2023-03-05T02:52:29.635Z,99480.88
2023-03-05T02:52:52.782Z,99479.29
2023-03-05T02:53:16.471Z,99483.26
2023-03-05T02:53:39.795Z,99483.94
2023-03-05T02:54:02.907Z,99482.07
2023-03-05T02:54:26.839Z,99481.95
2023-03-05T02:54:50.266Z,99482.17
2023-03-05T02:55:13.466Z,99483.81
2023-03-05T02:55:37.500Z,99483.00
2023-03-05T02:56:01.237Z,99485.36
2023-03-05T02:56:24.453Z,99489.09
2023-03-05T02:56:54.839Z,99485.70
2023-03-05T02:57:19.486Z,99485.43
2023-03-05T02:57:43.116Z,99490.34
2023-03-05T02:58:06.326Z,99487.29
2023-03-05T02:58:29.966Z,99482.05
2023-03-05T02:58:53.573Z,99482.66
2023-03-05T02:59:17.602Z,99486.26
2023-03-05T02:59:40.973Z,99482.89
2023-03-05T03:00:05.342Z,99487.54
2023-03-05T03:00:28.500Z,99488.80
2023-03-05T03:00:51.841Z,99487.00
2023-03-05T03:01:15.367Z,99484.80
2023-03-05T03:01:38.533Z,99486.46
2023-03-05T03:02:02.061Z,99487.85
2023-03-05T03:02:28.346Z,99482.09
2023-03-05T03:02:51.443Z,99485.44
2023-03-05T03:03:14.438Z,99482.67
2023-03-05T03:03:38.748Z,99481.37
2023-03-05T03:04:03.055Z,99488.05
2023-03-05T03:04:26.574Z,99486.73
2023-03-05T03:04:49.630Z,99485.43
2023-03-05T03:05:12.905Z,99485.03
2023-03-05T03:05:36.336Z,99482.17
2023-03-05T03:05:59.548Z,99480.38
2023-03-05T03:06:22.657Z,99481.02
2023-03-05T03:06:45.911Z,99481.14
2023-03-05T03:07:08.991Z,99486.52
2023-03-05T03:07:34.664Z,99488.52
2023-03-05T03:08:00.028Z,99483.45
2023-03-05T03:08:23.258Z,99485.88
2023-03-05T03:08:49.939Z,99482.53
2023-03-05T03:09:15.531Z,99483.67
2023-03-05T03:09:39.856Z,99483.23
2023-03-05T03:10:05.332Z,99479.80
2023-03-05T03:10:28.764Z,99479.19
2023-03-05T03:10:52.048Z,99481.04
2023-03-05T03:11:15.470Z,99479.92
2023-03-05T03:11:39.910Z,99481.27
2023-03-05T03:12:03.958Z,99482.80
2023-03-05T03:12:27.073Z,99475.69
2023-03-05T03:12:50.342Z,99478.49
2023-03-05T03:13:13.400Z,99481.35
2023-03-05T03:13:36.400Z,99477.14
2023-03-05T03:13:59.877Z,99478.65
2023-03-05T03:14:24.510Z,99477.02
2023-03-05T03:14:47.798Z,99480.25
2023-03-05T03:15:14.280Z,99480.87
2023-03-05T03:15:40.559Z,99485.36
2023-03-05T03:16:09.103Z,99481.79
2023-03-05T03:16:33.469Z,99481.92
2023-03-05T03:16:56.496Z,99479.73
2023-03-05T03:17:19.486Z,99477.48
2023-03-05T03:17:42.988Z,99479.25
2023-03-05T03:18:05.920Z,99481.52
2023-03-05T03:18:29.966Z,99479.88
2023-03-05T03:18:53.248Z,99482.13
2023-03-05T03:19:17.354Z,99483.42
2023-03-05T03:19:40.907Z,99480.64
2023-03-05T03:20:25.511Z,99486.31
2023-03-05T03:20:48.517Z,99482.45
2023-03-05T03:21:16.612Z,99488.66
2023-03-05T03:21:39.587Z,99484.98
2023-03-05T03:22:05.323Z,99485.37
2023-03-05T03:22:28.548Z,99485.48
2023-03-05T03:22:51.620Z,99488.35
2023-03-05T03:23:14.768Z,99489.85
2023-03-05T03:23:37.986Z,99488.06
2023-03-05T03:24:01.215Z,99486.79
2023-03-05T03:24:24.730Z,99490.19
2023-03-05T03:24:48.057Z,99490.14
2023-03-05T03:25:12.080Z,99490.97
2023-03-05T03:25:35.093Z,99490.08
2023-03-05T03:25:58.414Z,99493.84
2023-03-05T03:26:21.428Z,99491.67
2023-03-05T03:26:44.330Z,99488.60
2023-03-05T03:27:07.751Z,99492.15
2023-03-05T03:27:31.585Z,99493.91
2023-03-05T03:27:55.004Z,99493.52
2023-03-05T03:28:18.116Z,99492.11
2023-03-05T03:28:41.502Z,99496.06
2023-03-05T03:29:05.369Z,99494.98
2023-03-05T03:29:30.116Z,99495.25
2023-03-05T03:29:53.026Z,99496.41
2023-03-05T03:30:16.702Z,99495.83
2023-03-05T03:30:39.907Z,99495.08
2023-03-05T03:31:03.138Z,99496.64
2023-03-05T03:31:26.302Z,99497.97
2023-03-05T03:31:49.516Z,99497.83
2023-03-05T03:32:13.092Z,99500.94
2023-03-05T03:32:36.314Z,99500.81
2023-03-05T03:32:59.477Z,99499.36
2023-03-05T03:33:22.692Z,99498.23
2023-03-05T03:33:45.674Z,99502.37
2023-03-05T03:34:08.723Z,99500.38
2023-03-05T03:34:34.997Z,99500.54
2023-03-05T03:34:58.217Z,99501.38
2023-03-05T03:35:21.698Z,99506.89
2023-03-05T03:35:46.327Z,99499.51
2023-03-05T03:36:09.804Z,99505.91
2023-03-05T03:36:33.706Z,99510.89
2023-03-05T03:36:56.691Z,99509.79
2023-03-05T03:37:19.772Z,99508.13
2023-03-05T03:37:42.809Z,99508.23
2023-03-05T03:38:12.139Z,99508.23
2023-03-05T03:38:35.142Z,99512.14
2023-03-05T03:38:58.250Z,99511.27
2023-03-05T03:39:21.231Z,99511.74
2023-03-05T03:39:44.276Z,99510.70
2023-03-05T03:40:07.574Z,99511.14
2023-03-05T03:40:31.527Z,99514.42
2023-03-05T03:40:54.760Z,99510.89
2023-03-05T03:41:19.085Z,99511.20
2023-03-05T03:41:43.122Z,99512.36
2023-03-05T03:42:06.743Z,99511.30
2023-03-05T03:42:29.961Z,99512.84
2023-03-05T03:42:53.178Z,99511.63
2023-03-05T03:43:16.195Z,99514.63
2023-03-05T03:43:39.726Z,99513.99
2023-03-05T03:44:08.888Z,99513.88
2023-03-05T03:44:32.789Z,99514.89
2023-03-05T03:44:57.238Z,99514.46
2023-03-05T03:45:22.214Z,99512.15
2023-03-05T03:45:45.304Z,99512.79
2023-03-05T03:46:10.000Z,99513.21
2023-03-05T03:46:33.194Z,99514.72
2023-03-05T03:46:56.390Z,99512.38
2023-03-05T03:47:19.622Z,99513.54
2023-03-05T03:47:43.246Z,99513.59
2023-03-05T03:48:06.752Z,99511.32
2023-03-05T03:48:29.763Z,99514.79
2023-03-05T03:48:53.081Z,99512.89
2023-03-05T03:49:20.285Z,99513.17
2023-03-05T03:49:43.704Z,99514.03
2023-03-05T03:50:07.026Z,99512.27
2023-03-05T03:50:30.970Z,99511.72
2023-03-05T03:50:54.072Z,99512.23
2023-03-05T03:51:17.084Z,99512.04
2023-03-05T03:51:40.096Z,99515.73
2023-03-05T03:52:04.205Z,99514.72
2023-03-05T03:52:27.663Z,99513.75
2023-03-05T03:52:54.039Z,99513.13
2023-03-05T03:53:17.578Z,99513.55
2023-03-05T03:53:40.988Z,99512.06
2023-03-05T03:54:05.336Z,99510.27
2023-03-05T03:54:36.824Z,99508.69
2023-03-05T03:55:02.805Z,99507.25
2023-03-05T03:55:27.759Z,99510.64
2023-03-05T03:55:50.890Z,99508.46
2023-03-05T03:56:13.792Z,99504.54
2023-03-05T03:56:37.213Z,99506.48
2023-03-05T03:57:00.420Z,99506.48
2023-03-05T03:57:26.302Z,99505.56
2023-03-05T03:57:49.509Z,99507.48
2023-03-05T03:58:12.934Z,99506.33
2023-03-05T03:58:35.946Z,99506.73
2023-03-05T03:58:58.954Z,99505.45
2023-03-05T03:59:22.375Z,99504.90
2023-03-05T03:59:46.312Z,99503.42
2023-03-05T04:00:10.508Z,99504.05
2023-03-05T04:00:36.227Z,99505.59
2023-03-05T04:01:01.388Z,99502.15
2023-03-05T04:01:24.817Z,99504.25
2023-03-05T04:01:48.153Z,99501.19
2023-03-05T04:02:11.103Z,99500.52
2023-03-05T04:02:36.210Z,99500.26
2023-03-05T04:02:59.215Z,99500.02
2023-03-05T04:03:22.519Z,99499.63
2023-03-05T04:03:45.838Z,99500.54
2023-03-05T04:04:10.287Z,99501.38
2023-03-05T04:04:33.623Z,99500.45
2023-03-05T04:04:58.051Z,99502.98
2023-03-05T04:05:21.057Z,99496.48
2023-03-05T04:05:44.066Z,99497.16
2023-03-05T04:06:07.390Z,99495.83
2023-03-05T04:06:33.979Z,99496.30
2023-03-05T04:06:59.137Z,99498.48
2023-03-05T04:07:24.810Z,99495.11
2023-03-05T04:07:53.446Z,99497.82
2023-03-05T04:08:17.284Z,99493.04
2023-03-05T04:08:40.312Z,99492.85
2023-03-05T04:09:03.706Z,99495.48
2023-03-05T04:09:27.022Z,99494.80
2023-03-05T04:09:50.650Z,99495.65
2023-03-05T04:10:13.898Z,99494.02
2023-03-05T04:10:39.913Z,99497.83
2023-03-05T04:11:03.775Z,99498.80
2023-03-05T04:11:26.790Z,99496.78
2023-03-05T04:11:50.226Z,99495.02
2023-03-05T04:12:18.236Z,99496.35
2023-03-05T04:12:43.708Z,99499.84
2023-03-05T04:13:07.506Z,99502.09
2023-03-05T04:13:31.154Z,99497.27
2023-03-05T04:13:54.266Z,99497.02
2023-03-05T04:14:22.499Z,99500.53
2023-03-05T04:14:49.613Z,99502.02
2023-03-05T04:15:12.503Z,99501.90
2023-03-05T04:15:35.944Z,99502.19
2023-03-05T04:15:59.421Z,99505.88
2023-03-05T04:16:22.874Z,99503.89
2023-03-05T04:16:46.202Z,99504.13
2023-03-05T04:17:09.409Z,99502.65
2023-03-05T04:17:32.936Z,99501.66
2023-03-05T04:17:56.148Z,99500.04
2023-03-05T04:18:19.568Z,99498.71
2023-03-05T04:18:42.682Z,99498.10
2023-03-05T04:19:05.799Z,99504.44
2023-03-05T04:19:30.778Z,99502.98
2023-03-05T04:19:55.259Z,99505.64
2023-03-05T04:20:21.794Z,99504.00
2023-03-05T04:20:45.003Z,99503.04
2023-03-05T04:21:09.894Z,99507.61
2023-03-05T04:21:35.629Z,99506.58
2023-03-05T04:21:59.201Z,99507.27
2023-03-05T04:22:22.160Z,99507.21
2023-03-05T04:22:45.385Z,99508.60
2023-03-05T04:23:08.922Z,99511.46
2023-03-05T04:23:32.058Z,99513.16
2023-03-05T04:23:55.238Z,99514.45
2023-03-05T04:24:18.481Z,99512.86
2023-03-05T04:24:42.086Z,99514.52
2023-03-05T04:25:08.526Z,99515.86
2023-03-05T04:25:31.657Z,99517.39
2023-03-05T04:25:56.436Z,99519.81
2023-03-05T04:26:20.462Z,99520.02
2023-03-05T04:26:43.683Z,99523.55
2023-03-05T04:27:06.895Z,99523.61
2023-03-05T04:27:30.415Z,99521.59
2023-03-05T04:28:13.272Z,99523.32
2023-03-05T04:28:48.456Z,99523.12
2023-03-05T04:29:11.473Z,99528.61
2023-03-05T04:29:35.293Z,99526.11
2023-03-05T04:29:58.204Z,99528.58
2023-03-05T04:30:23.675Z,99528.20
2023-03-05T04:30:47.649Z,99532.07
2023-03-05T04:31:10.651Z,99533.23
2023-03-05T04:31:35.922Z,99529.68
2023-03-05T04:31:59.603Z,99530.65
2023-03-05T04:32:26.252Z,99531.39
2023-03-05T04:32:49.818Z,99531.91
2023-03-05T04:33:12.931Z,99531.48
2023-03-05T04:33:36.045Z,99533.05
2023-03-05T04:33:59.669Z,99529.91
2023-03-05T04:34:22.885Z,99530.60
2023-03-05T04:34:46.001Z,99532.44
2023-03-05T04:35:09.318Z,99530.85
2023-03-05T04:35:32.985Z,99531.80
2023-03-05T04:35:56.194Z,99529.47
2023-03-05T04:36:23.676Z,99530.54
2023-03-05T04:36:46.618Z,99535.70
2023-03-05T04:37:11.031Z,99536.48
2023-03-05T04:37:34.240Z,99538.52
2023-03-05T04:37:57.356Z,99539.80
2023-03-05T04:38:21.592Z,99535.92
2023-03-05T04:38:45.523Z,99540.13
2023-03-05T04:39:08.450Z,99541.18
2023-03-05T04:39:31.755Z,99538.30
2023-03-05T04:39:54.868Z,99540.80
2023-03-05T04:40:19.238Z,99538.76
2023-03-05T04:40:42.220Z,99537.45
2023-03-05T04:41:05.539Z,99539.41
2023-03-05T04:41:28.571Z,99541.57
2023-03-05T04:41:56.268Z,99537.59
2023-03-05T04:42:24.258Z,99539.79
2023-03-05T04:42:47.308Z,99545.25
2023-03-05T04:43:10.324Z,99544.30
2023-03-05T04:43:35.987Z,99541.38
2023-03-05T04:43:59.376Z,99545.64
2023-03-05T04:44:23.491Z,99545.69
2023-03-05T04:44:47.401Z,99550.23
2023-03-05T04:45:11.815Z,99548.06
2023-03-05T04:45:35.034Z,99547.61
2023-03-05T04:45:58.271Z,99548.83
2023-03-05T04:46:21.721Z,99550.09
2023-03-05T04:46:45.022Z,99549.03